sensor_id;sensor_type;location;lat;lon;timestamp;P1;durP1;ratioP1;P2;durP2;ratioP2
21517;SDS011;61765;45.794;24.150;2024-03-08T00:06:52;24.73;;;14.88;;
21517;SDS011;61765;45.794;24.150;2024-03-08T00:14:57;27.63;;;14.43;;
21517;SDS011;61765;45.794;24.150;2024-03-08T00:23:06;27.75;;;14.95;;
21517;SDS011;61765;45.794;24.150;2024-03-08T00:31:12;33.35;;;15.60;;
21517;SDS011;61765;45.794;24.150;2024-03-08T00:39:21;29.60;;;15.70;;
21517;SDS011;61765;45.794;24.150;2024-03-08T00:47:27;28.30;;;15.38;;
21517;SDS011;61765;45.794;24.150;2024-03-08T00:55:36;25.58;;;14.73;;
21517;SDS011;61765;45.794;24.150;2024-03-08T01:03:42;29.63;;;15.63;;
21517;SDS011;61765;45.794;24.150;2024-03-08T01:11:51;29.55;;;16.73;;
21517;SDS011;61765;45.794;24.150;2024-03-08T01:19:57;31.90;;;15.48;;
21517;SDS011;61765;45.794;24.150;2024-03-08T01:28:07;30.63;;;16.98;;
21517;SDS011;61765;45.794;24.150;2024-03-08T01:36:15;34.85;;;16.75;;
21517;SDS011;61765;45.794;24.150;2024-03-08T01:44:24;33.13;;;17.55;;
21517;SDS011;61765;45.794;24.150;2024-03-08T01:52:30;32.90;;;17.73;;
21517;SDS011;61765;45.794;24.150;2024-03-08T02:00:38;35.42;;;17.65;;
21517;SDS011;61765;45.794;24.150;2024-03-08T02:08:47;35.75;;;18.83;;
21517;SDS011;61765;45.794;24.150;2024-03-08T02:16:56;36.35;;;18.50;;
21517;SDS011;61765;45.794;24.150;2024-03-08T02:25:09;35.47;;;18.50;;
21517;SDS011;61765;45.794;24.150;2024-03-08T02:33:16;33.65;;;17.27;;
21517;SDS011;61765;45.794;24.150;2024-03-08T02:41:25;38.47;;;18.88;;
21517;SDS011;61765;45.794;24.150;2024-03-08T02:49:31;37.28;;;18.60;;
21517;SDS011;61765;45.794;24.150;2024-03-08T02:57:41;38.40;;;19.30;;
21517;SDS011;61765;45.794;24.150;2024-03-08T03:05:49;42.42;;;20.55;;
21517;SDS011;61765;45.794;24.150;2024-03-08T03:14:00;37.15;;;19.42;;
21517;SDS011;61765;45.794;24.150;2024-03-08T03:22:06;42.78;;;20.75;;
21517;SDS011;61765;45.794;24.150;2024-03-08T03:30:15;36.95;;;18.48;;
21517;SDS011;61765;45.794;24.150;2024-03-08T03:38:27;41.70;;;19.30;;
21517;SDS011;61765;45.794;24.150;2024-03-08T03:46:36;39.78;;;20.50;;
21517;SDS011;61765;45.794;24.150;2024-03-08T03:54:42;40.15;;;20.10;;
21517;SDS011;61765;45.794;24.150;2024-03-08T04:02:50;42.35;;;19.23;;
21517;SDS011;61765;45.794;24.150;2024-03-08T04:10:57;40.55;;;20.20;;
21517;SDS011;61765;45.794;24.150;2024-03-08T04:19:05;44.25;;;20.90;;
21517;SDS011;61765;45.794;24.150;2024-03-08T04:27:12;44.85;;;20.65;;
21517;SDS011;61765;45.794;24.150;2024-03-08T04:35:22;46.42;;;20.75;;
21517;SDS011;61765;45.794;24.150;2024-03-08T04:43:27;40.20;;;19.40;;
21517;SDS011;61765;45.794;24.150;2024-03-08T04:51:36;43.20;;;19.40;;
21517;SDS011;61765;45.794;24.150;2024-03-08T04:59:42;40.72;;;20.77;;
21517;SDS011;61765;45.794;24.150;2024-03-08T05:07:51;42.83;;;19.73;;
21517;SDS011;61765;45.794;24.150;2024-03-08T05:15:57;41.20;;;20.08;;
21517;SDS011;61765;45.794;24.150;2024-03-08T05:24:06;42.78;;;20.25;;
21517;SDS011;61765;45.794;24.150;2024-03-08T05:32:12;49.97;;;20.77;;
21517;SDS011;61765;45.794;24.150;2024-03-08T05:40:20;54.40;;;21.08;;
21517;SDS011;61765;45.794;24.150;2024-03-08T05:48:26;43.20;;;19.85;;
21517;SDS011;61765;45.794;24.150;2024-03-08T05:56:37;43.30;;;21.02;;
21517;SDS011;61765;45.794;24.150;2024-03-08T06:04:44;40.03;;;19.40;;
21517;SDS011;61765;45.794;24.150;2024-03-08T06:12:53;47.53;;;20.90;;
21517;SDS011;61765;45.794;24.150;2024-03-08T06:20:58;39.45;;;19.85;;
21517;SDS011;61765;45.794;24.150;2024-03-08T06:29:07;42.78;;;19.92;;
21517;SDS011;61765;45.794;24.150;2024-03-08T06:37:15;38.90;;;19.90;;
21517;SDS011;61765;45.794;24.150;2024-03-08T06:45:26;36.92;;;18.85;;
21517;SDS011;61765;45.794;24.150;2024-03-08T06:53:32;33.78;;;18.55;;
21517;SDS011;61765;45.794;24.150;2024-03-08T07:01:43;37.40;;;20.17;;
21517;SDS011;61765;45.794;24.150;2024-03-08T07:09:50;38.53;;;18.85;;
21517;SDS011;61765;45.794;24.150;2024-03-08T07:18:01;39.70;;;19.13;;
21517;SDS011;61765;45.794;24.150;2024-03-08T07:26:08;41.45;;;22.83;;
21517;SDS011;61765;45.794;24.150;2024-03-08T07:34:17;42.72;;;20.13;;
21517;SDS011;61765;45.794;24.150;2024-03-08T07:42:23;44.83;;;21.38;;
21517;SDS011;61765;45.794;24.150;2024-03-08T07:50:33;41.33;;;21.75;;
21517;SDS011;61765;45.794;24.150;2024-03-08T07:58:39;40.67;;;19.83;;
21517;SDS011;61765;45.794;24.150;2024-03-08T08:06:48;42.53;;;20.77;;
21517;SDS011;61765;45.794;24.150;2024-03-08T08:14:54;40.72;;;20.50;;
21517;SDS011;61765;45.794;24.150;2024-03-08T08:23:03;31.90;;;19.20;;
21517;SDS011;61765;45.794;24.150;2024-03-08T08:31:09;38.65;;;21.52;;
21517;SDS011;61765;45.794;24.150;2024-03-08T08:39:17;45.65;;;21.85;;
21517;SDS011;61765;45.794;24.150;2024-03-08T08:47:24;37.45;;;22.30;;
21517;SDS011;61765;45.794;24.150;2024-03-08T08:55:33;40.83;;;21.58;;
21517;SDS011;61765;45.794;24.150;2024-03-08T09:03:39;47.55;;;22.50;;
21517;SDS011;61765;45.794;24.150;2024-03-08T09:11:51;37.95;;;21.73;;
21517;SDS011;61765;45.794;24.150;2024-03-08T09:19:58;37.63;;;21.33;;
21517;SDS011;61765;45.794;24.150;2024-03-08T09:28:09;32.70;;;19.90;;
21517;SDS011;61765;45.794;24.150;2024-03-08T09:36:16;34.78;;;20.27;;
21517;SDS011;61765;45.794;24.150;2024-03-08T09:44:25;35.30;;;20.08;;
21517;SDS011;61765;45.794;24.150;2024-03-08T09:52:31;34.67;;;20.85;;
21517;SDS011;61765;45.794;24.150;2024-03-08T10:00:39;31.40;;;19.55;;
21517;SDS011;61765;45.794;24.150;2024-03-08T10:08:45;27.70;;;19.95;;
21517;SDS011;61765;45.794;24.150;2024-03-08T10:16:56;26.02;;;17.38;;
21517;SDS011;61765;45.794;24.150;2024-03-08T10:25:03;27.50;;;17.67;;
21517;SDS011;61765;45.794;24.150;2024-03-08T10:33:15;26.35;;;17.95;;
21517;SDS011;61765;45.794;24.150;2024-03-08T10:41:21;26.48;;;16.25;;
21517;SDS011;61765;45.794;24.150;2024-03-08T10:49:39;24.90;;;14.80;;
21517;SDS011;61765;45.794;24.150;2024-03-08T10:57:52;20.27;;;14.35;;
21517;SDS011;61765;45.794;24.150;2024-03-08T11:06:01;19.52;;;13.50;;
21517;SDS011;61765;45.794;24.150;2024-03-08T11:14:07;18.92;;;12.63;;
21517;SDS011;61765;45.794;24.150;2024-03-08T11:22:51;18.07;;;12.37;;
21517;SDS011;61765;45.794;24.150;2024-03-08T11:39:33;24.10;;;14.60;;
21517;SDS011;61765;45.794;24.150;2024-03-08T11:47:41;20.70;;;13.95;;
21517;SDS011;61765;45.794;24.150;2024-03-08T11:55:51;19.30;;;13.48;;
21517;SDS011;61765;45.794;24.150;2024-03-08T12:03:57;18.45;;;12.82;;
21517;SDS011;61765;45.794;24.150;2024-03-08T12:12:06;23.35;;;13.85;;
21517;SDS011;61765;45.794;24.150;2024-03-08T12:20:17;19.77;;;12.90;;
21517;SDS011;61765;45.794;24.150;2024-03-08T12:28:27;19.50;;;12.68;;
21517;SDS011;61765;45.794;24.150;2024-03-08T12:36:33;19.90;;;11.93;;
21517;SDS011;61765;45.794;24.150;2024-03-08T12:44:41;23.77;;;12.45;;
21517;SDS011;61765;45.794;24.150;2024-03-08T12:52:48;19.92;;;12.50;;
21517;SDS011;61765;45.794;24.150;2024-03-08T13:00:57;20.40;;;13.40;;
21517;SDS011;61765;45.794;24.150;2024-03-08T13:09:04;22.98;;;13.90;;
21517;SDS011;61765;45.794;24.150;2024-03-08T13:17:14;21.95;;;13.02;;
21517;SDS011;61765;45.794;24.150;2024-03-08T13:25:21;21.30;;;13.05;;
21517;SDS011;61765;45.794;24.150;2024-03-08T13:33:29;20.05;;;12.60;;
21517;SDS011;61765;45.794;24.150;2024-03-08T13:41:37;20.92;;;12.32;;
21517;SDS011;61765;45.794;24.150;2024-03-08T13:49:46;19.90;;;12.38;;
21517;SDS011;61765;45.794;24.150;2024-03-08T13:57:52;17.88;;;12.38;;
21517;SDS011;61765;45.794;24.150;2024-03-08T14:06:02;18.67;;;11.73;;
21517;SDS011;61765;45.794;24.150;2024-03-08T14:14:09;17.63;;;11.48;;
21517;SDS011;61765;45.794;24.150;2024-03-08T14:22:18;16.75;;;10.93;;
21517;SDS011;61765;45.794;24.150;2024-03-08T14:30:25;23.27;;;13.15;;
21517;SDS011;61765;45.794;24.150;2024-03-08T14:38:40;17.43;;;11.73;;
21517;SDS011;61765;45.794;24.150;2024-03-08T14:46:46;21.38;;;12.50;;
21517;SDS011;61765;45.794;24.150;2024-03-08T14:54:55;17.55;;;12.18;;
21517;SDS011;61765;45.794;24.150;2024-03-08T15:03:01;22.38;;;12.15;;
21517;SDS011;61765;45.794;24.150;2024-03-08T15:11:11;20.05;;;13.43;;
21517;SDS011;61765;45.794;24.150;2024-03-08T15:19:24;21.85;;;13.57;;
21517;SDS011;61765;45.794;24.150;2024-03-08T15:27:32;21.50;;;13.65;;
21517;SDS011;61765;45.794;24.150;2024-03-08T15:35:41;24.13;;;13.75;;
21517;SDS011;61765;45.794;24.150;2024-03-08T15:43:53;22.95;;;14.10;;
21517;SDS011;61765;45.794;24.150;2024-03-08T15:52:02;22.95;;;13.98;;
21517;SDS011;61765;45.794;24.150;2024-03-08T16:00:12;22.38;;;13.70;;
21517;SDS011;61765;45.794;24.150;2024-03-08T16:08:32;24.88;;;14.95;;
21517;SDS011;61765;45.794;24.150;2024-03-08T16:16:44;25.02;;;15.13;;
21517;SDS011;61765;45.794;24.150;2024-03-08T16:24:50;24.42;;;15.07;;
21517;SDS011;61765;45.794;24.150;2024-03-08T16:33:00;28.20;;;16.52;;
21517;SDS011;61765;45.794;24.150;2024-03-08T16:41:07;28.40;;;17.83;;
21517;SDS011;61765;45.794;24.150;2024-03-08T16:49:16;27.38;;;17.75;;
21517;SDS011;61765;45.794;24.150;2024-03-08T16:57:24;30.10;;;18.90;;
21517;SDS011;61765;45.794;24.150;2024-03-08T17:05:34;30.00;;;19.02;;
21517;SDS011;61765;45.794;24.150;2024-03-08T17:13:40;30.20;;;17.55;;
21517;SDS011;61765;45.794;24.150;2024-03-08T17:21:50;29.95;;;17.92;;
21517;SDS011;61765;45.794;24.150;2024-03-08T17:29:56;31.48;;;19.75;;
21517;SDS011;61765;45.794;24.150;2024-03-08T17:38:10;36.10;;;19.95;;
21517;SDS011;61765;45.794;24.150;2024-03-08T17:46:17;33.17;;;19.08;;
21517;SDS011;61765;45.794;24.150;2024-03-08T17:54:26;30.48;;;18.50;;
21517;SDS011;61765;45.794;24.150;2024-03-08T18:02:34;34.72;;;19.25;;
21517;SDS011;61765;45.794;24.150;2024-03-08T18:10:43;29.63;;;17.58;;
21517;SDS011;61765;45.794;24.150;2024-03-08T18:18:51;32.42;;;17.73;;
21517;SDS011;61765;45.794;24.150;2024-03-08T18:26:59;27.75;;;16.15;;
21517;SDS011;61765;45.794;24.150;2024-03-08T18:35:05;29.83;;;17.45;;
21517;SDS011;61765;45.794;24.150;2024-03-08T18:43:15;25.48;;;16.60;;
21517;SDS011;61765;45.794;24.150;2024-03-08T18:51:26;25.95;;;16.90;;
21517;SDS011;61765;45.794;24.150;2024-03-08T18:59:36;25.30;;;17.10;;
21517;SDS011;61765;45.794;24.150;2024-03-08T19:07:42;25.90;;;16.35;;
21517;SDS011;61765;45.794;24.150;2024-03-08T19:15:52;34.10;;;19.45;;
21517;SDS011;61765;45.794;24.150;2024-03-08T19:23:58;30.77;;;18.42;;
21517;SDS011;61765;45.794;24.150;2024-03-08T19:32:07;27.70;;;17.15;;
21517;SDS011;61765;45.794;24.150;2024-03-08T19:40:14;51.42;;;25.80;;
21517;SDS011;61765;45.794;24.150;2024-03-08T19:48:26;50.22;;;27.45;;
21517;SDS011;61765;45.794;24.150;2024-03-08T19:56:32;47.70;;;25.65;;
21517;SDS011;61765;45.794;24.150;2024-03-08T20:04:42;49.47;;;26.45;;
21517;SDS011;61765;45.794;24.150;2024-03-08T20:12:49;45.17;;;26.55;;
21517;SDS011;61765;45.794;24.150;2024-03-08T20:21:01;41.95;;;24.10;;
21517;SDS011;61765;45.794;24.150;2024-03-08T20:29:08;41.65;;;24.10;;
21517;SDS011;61765;45.794;24.150;2024-03-08T20:37:16;36.45;;;22.55;;
21517;SDS011;61765;45.794;24.150;2024-03-08T20:45:24;37.50;;;22.75;;
21517;SDS011;61765;45.794;24.150;2024-03-08T20:53:33;34.53;;;22.23;;
21517;SDS011;61765;45.794;24.150;2024-03-08T21:01:42;55.78;;;31.83;;
21517;SDS011;61765;45.794;24.150;2024-03-08T21:09:51;74.53;;;38.63;;
21517;SDS011;61765;45.794;24.150;2024-03-08T21:17:57;69.00;;;34.70;;
21517;SDS011;61765;45.794;24.150;2024-03-08T21:26:08;59.33;;;31.77;;
21517;SDS011;61765;45.794;24.150;2024-03-08T21:34:16;59.45;;;31.25;;
21517;SDS011;61765;45.794;24.150;2024-03-08T21:42:25;60.70;;;31.55;;
21517;SDS011;61765;45.794;24.150;2024-03-08T21:50:31;65.45;;;32.25;;
21517;SDS011;61765;45.794;24.150;2024-03-08T21:58:40;52.17;;;30.08;;
21517;SDS011;61765;45.794;24.150;2024-03-08T22:06:46;55.67;;;29.92;;
21517;SDS011;61765;45.794;24.150;2024-03-08T22:14:55;57.60;;;28.80;;
21517;SDS011;61765;45.794;24.150;2024-03-08T22:23:01;52.40;;;27.98;;
21517;SDS011;61765;45.794;24.150;2024-03-08T22:31:11;60.95;;;28.73;;
21517;SDS011;61765;45.794;24.150;2024-03-08T22:39:18;53.85;;;28.88;;
21517;SDS011;61765;45.794;24.150;2024-03-08T22:47:28;52.05;;;27.33;;
21517;SDS011;61765;45.794;24.150;2024-03-08T22:55:35;50.35;;;27.75;;
21517;SDS011;61765;45.794;24.150;2024-03-08T23:03:43;54.35;;;27.10;;
21517;SDS011;61765;45.794;24.150;2024-03-08T23:11:50;54.83;;;27.83;;
21517;SDS011;61765;45.794;24.150;2024-03-08T23:19:59;51.08;;;27.55;;
21517;SDS011;61765;45.794;24.150;2024-03-08T23:28:07;51.78;;;27.10;;
21517;SDS011;61765;45.794;24.150;2024-03-08T23:36:17;52.53;;;27.17;;
21517;SDS011;61765;45.794;24.150;2024-03-08T23:44:23;59.15;;;30.75;;
21517;SDS011;61765;45.794;24.150;2024-03-08T23:52:34;49.30;;;26.00;;
